createdAt,value
2018-05-08T00:00:36.996Z,15.40
2018-05-08T00:03:05.290Z,15.40
2018-05-08T00:05:32.802Z,15.40
2018-05-08T00:08:00.326Z,15.30
2018-05-08T00:10:28.625Z,15.20
2018-05-08T00:12:56.146Z,15.20
2018-05-08T00:15:24.434Z,15.10
2018-05-08T00:17:52.715Z,15.10
2018-05-08T00:20:20.989Z,15.10
2018-05-08T00:22:49.277Z,15.10
2018-05-08T00:25:16.797Z,15.10
2018-05-08T00:27:44.309Z,15.00
2018-05-08T00:30:11.829Z,15.00
2018-05-08T00:32:39.341Z,15.00
2018-05-08T00:35:06.850Z,14.90
2018-05-08T00:37:35.133Z,14.90
2018-05-08T00:40:03.406Z,14.80
2018-05-08T00:42:31.682Z,14.80
2018-05-08T00:44:59.966Z,14.70
2018-05-08T00:47:28.242Z,14.70
2018-05-08T00:49:56.529Z,14.60
2018-05-08T00:52:24.037Z,14.60
2018-05-08T00:55:03.375Z,14.60
2018-05-08T00:57:30.889Z,14.60
2018-05-08T00:59:58.405Z,14.50
2018-05-08T01:02:26.693Z,14.50
2018-05-08T01:04:55.022Z,14.40
2018-05-08T01:07:23.279Z,14.30
2018-05-08T01:09:50.804Z,14.30
2018-05-08T01:12:19.098Z,14.30
2018-05-08T01:14:46.621Z,14.30
2018-05-08T01:17:14.905Z,14.20
2018-05-08T01:19:42.415Z,14.20
2018-05-08T01:22:10.016Z,14.20
2018-05-08T01:24:38.217Z,14.20
2018-05-08T01:27:06.502Z,14.10
2018-05-08T01:29:34.791Z,14.10
2018-05-08T01:32:02.301Z,14.10
2018-05-08T01:34:29.813Z,14.10
2018-05-08T01:36:57.325Z,14.10
2018-05-08T01:39:24.846Z,14.00
2018-05-08T01:41:52.424Z,13.90
2018-05-08T01:44:20.645Z,13.70
2018-05-08T01:46:48.917Z,13.70
2018-05-08T01:49:17.196Z,13.70
2018-05-08T01:51:45.482Z,13.70
2018-05-08T01:54:13.758Z,13.60
2018-05-08T01:56:41.266Z,13.60
2018-05-08T01:59:08.787Z,13.60
2018-05-08T02:01:36.305Z,13.60
2018-05-08T02:04:03.817Z,13.60
2018-05-08T02:06:31.335Z,13.60
2018-05-08T02:08:59.622Z,13.60
2018-05-08T02:11:27.901Z,13.50
2018-05-08T02:13:56.185Z,13.60
2018-05-08T02:16:23.707Z,13.60
2018-05-08T02:18:51.235Z,13.60
2018-05-08T02:21:18.754Z,13.60
2018-05-08T02:23:47.029Z,13.50
2018-05-08T02:26:15.306Z,13.50
2018-05-08T02:28:43.582Z,13.50
2018-05-08T02:31:11.871Z,13.50
2018-05-08T02:33:39.382Z,13.40
2018-05-08T02:36:07.674Z,13.40
2018-05-08T02:38:35.194Z,13.40
2018-05-08T02:41:02.707Z,13.40
2018-05-08T02:43:30.973Z,13.40
2018-05-08T02:45:59.262Z,13.30
2018-05-08T02:48:27.549Z,13.30
2018-05-08T02:50:55.070Z,13.30
2018-05-08T02:53:22.581Z,13.30
2018-05-08T02:55:50.102Z,13.30
2018-05-08T02:58:18.390Z,13.30
2018-05-08T03:00:46.674Z,13.20
2018-05-08T03:03:14.194Z,13.20
2018-05-08T03:05:41.712Z,13.20
2018-05-08T03:08:09.233Z,13.20
2018-05-08T03:10:37.525Z,13.20
2018-05-08T03:13:05.048Z,13.20
2018-05-08T03:15:32.577Z,13.20
2018-05-08T03:18:00.086Z,13.30
2018-05-08T03:20:28.387Z,13.30
2018-05-08T03:22:55.905Z,13.30
2018-05-08T03:25:23.420Z,13.30
2018-05-08T03:27:50.937Z,13.30
2018-05-08T03:30:19.213Z,13.30
2018-05-08T03:32:47.497Z,13.30
2018-05-08T03:35:15.778Z,13.30
2018-05-08T03:37:44.053Z,13.30
2018-05-08T03:40:12.333Z,13.30
2018-05-08T03:42:40.616Z,13.30
2018-05-08T03:45:08.128Z,13.20
2018-05-08T03:47:35.647Z,13.20
2018-05-08T03:50:03.161Z,13.20
2018-05-08T03:52:30.677Z,13.20
2018-05-08T03:54:58.197Z,13.10
2018-05-08T03:57:26.476Z,13.00
2018-05-08T03:59:54.002Z,13.00
2018-05-08T04:02:33.358Z,13.10
2018-05-08T04:05:13.389Z,13.10
2018-05-08T04:07:52.702Z,13.10
2018-05-08T04:10:20.205Z,13.10
2018-05-08T04:12:48.496Z,13.10
2018-05-08T04:15:16.770Z,13.10
2018-05-08T04:17:45.049Z,13.10
2018-05-08T04:20:12.566Z,13.10
2018-05-08T04:22:40.085Z,13.20
2018-05-08T04:25:07.607Z,13.10
2018-05-08T04:27:35.890Z,13.10
2018-05-08T04:30:04.166Z,13.10
2018-05-08T04:32:32.461Z,13.20
2018-05-08T04:34:59.970Z,13.20
2018-05-08T04:37:27.481Z,13.20
2018-05-08T04:39:54.997Z,13.30
2018-05-08T04:42:22.513Z,13.30
2018-05-08T04:44:50.030Z,13.40
2018-05-08T04:47:18.345Z,13.50
2018-05-08T04:49:45.849Z,13.50
2018-05-08T04:52:13.370Z,13.60
2018-05-08T04:54:40.886Z,13.60
2018-05-08T04:57:09.182Z,13.70
2018-05-08T04:59:36.694Z,13.70
2018-05-08T05:02:04.227Z,13.80
2018-05-08T05:04:31.760Z,13.90
2018-05-08T05:06:59.305Z,14.00
2018-05-08T05:09:26.803Z,14.10
2018-05-08T05:11:54.349Z,14.10
2018-05-08T05:14:21.871Z,14.30
2018-05-08T05:16:49.418Z,14.30
2018-05-08T05:19:16.913Z,14.40
2018-05-08T05:21:44.422Z,14.50
2018-05-08T05:24:11.925Z,14.60
2018-05-08T05:26:40.201Z,14.80
2018-05-08T05:29:07.726Z,14.80
2018-05-08T05:31:35.289Z,14.90
2018-05-08T05:34:02.795Z,14.90
2018-05-08T05:36:30.328Z,15.00
2018-05-08T05:38:58.603Z,15.10
2018-05-08T05:41:26.902Z,15.20
2018-05-08T05:43:54.410Z,15.10
2018-05-08T05:46:21.927Z,15.20
2018-05-08T05:48:49.450Z,15.30
2018-05-08T05:51:17.737Z,15.40
2018-05-08T05:53:46.014Z,15.40
2018-05-08T05:56:14.293Z,15.50
2018-05-08T05:58:42.578Z,15.50
2018-05-08T06:01:10.095Z,15.50
2018-05-08T06:03:37.787Z,15.60
2018-05-08T06:06:06.067Z,15.70
2018-05-08T06:08:34.342Z,15.70
2018-05-08T06:11:02.622Z,15.80
2018-05-08T06:13:30.902Z,15.90
2018-05-08T06:15:58.418Z,15.90
2018-05-08T06:18:25.934Z,16.00
2018-05-08T06:20:53.457Z,16.00
2018-05-08T06:23:21.734Z,16.20
2018-05-08T06:25:50.006Z,16.30
2018-05-08T06:28:17.514Z,16.20
2018-05-08T06:30:45.031Z,16.30
2018-05-08T06:33:13.301Z,16.50
2018-05-08T06:35:41.582Z,16.50
2018-05-08T06:38:09.869Z,16.60
2018-05-08T06:40:38.154Z,16.70
2018-05-08T06:43:05.674Z,16.60
2018-05-08T06:45:33.189Z,16.70
2018-05-08T06:48:00.710Z,16.80
2018-05-08T06:50:28.995Z,17.00
2018-05-08T06:52:57.286Z,17.00
2018-05-08T06:55:24.991Z,17.00
2018-05-08T06:57:52.501Z,17.00
2018-05-08T07:00:21.290Z,17.10
2018-05-08T07:02:48.813Z,17.10
2018-05-08T07:05:16.330Z,17.20
2018-05-08T07:07:45.224Z,17.30
2018-05-08T07:10:12.749Z,17.30
2018-05-08T07:12:41.030Z,17.40
2018-05-08T07:15:09.306Z,17.40
2018-05-08T07:17:37.598Z,17.50
2018-05-08T07:20:05.102Z,17.50
2018-05-08T07:22:32.617Z,17.70
2018-05-08T07:25:00.136Z,17.70
2018-05-08T07:27:27.654Z,17.80
2018-05-08T07:29:55.183Z,17.90
2018-05-08T07:32:22.701Z,18.00
2018-05-08T07:34:50.223Z,18.10
2018-05-08T07:37:17.733Z,18.20
2018-05-08T07:39:46.026Z,18.30
2018-05-08T07:42:14.305Z,18.30
2018-05-08T07:44:42.589Z,18.30
2018-05-08T07:47:10.094Z,18.30
2018-05-08T07:49:37.615Z,18.40
2018-05-08T07:52:05.128Z,18.40
2018-05-08T07:54:32.645Z,18.40
2018-05-08T07:57:00.166Z,18.50
2018-05-08T07:59:28.438Z,18.60
2018-05-08T08:01:56.722Z,18.70
2018-05-08T08:04:25.028Z,18.70
2018-05-08T08:06:52.554Z,18.70
2018-05-08T08:09:20.844Z,18.90
2018-05-08T08:11:49.121Z,19.10
2018-05-08T08:14:17.394Z,19.20
2018-05-08T08:16:45.674Z,19.30
2018-05-08T08:19:13.193Z,19.20
2018-05-08T08:21:40.714Z,19.30
2018-05-08T08:24:08.230Z,19.40
2018-05-08T08:26:35.734Z,19.40
2018-05-08T08:29:03.249Z,19.40
2018-05-08T08:31:31.530Z,19.40
2018-05-08T08:33:59.858Z,19.50
2018-05-08T08:36:28.101Z,19.60
2018-05-08T08:38:55.617Z,19.50
2018-05-08T08:41:23.146Z,19.60
2018-05-08T08:43:50.658Z,19.70
2018-05-08T08:46:18.940Z,19.90
2018-05-08T08:48:47.226Z,20.00
2018-05-08T08:51:15.498Z,20.10
2018-05-08T08:53:43.790Z,20.20
2018-05-08T08:56:11.306Z,20.20
2018-05-08T08:58:40.328Z,20.50
2018-05-08T09:01:08.617Z,20.60
2018-05-08T09:03:36.139Z,20.50
2018-05-08T09:06:03.657Z,20.70
2018-05-08T09:08:31.170Z,20.70
2018-05-08T09:10:59.454Z,21.10
2018-05-08T09:13:27.735Z,21.20
2018-05-08T09:15:56.018Z,21.30
2018-05-08T09:18:23.532Z,21.30
2018-05-08T09:20:51.558Z,21.30
2018-05-08T09:23:19.083Z,21.40
2018-05-08T09:25:46.610Z,21.60
2018-05-08T09:28:14.122Z,21.70
2018-05-08T09:30:42.400Z,21.60
2018-05-08T09:33:09.927Z,21.60
2018-05-08T09:35:37.445Z,21.70
2018-05-08T09:38:04.958Z,21.90
2018-05-08T09:40:33.230Z,22.40
2018-05-08T09:43:00.743Z,22.40
2018-05-08T09:45:28.257Z,22.60
2018-05-08T09:47:56.532Z,22.60
2018-05-08T09:50:24.813Z,22.60
2018-05-08T09:52:53.091Z,22.60
2018-05-08T09:55:21.362Z,22.70
2018-05-08T09:57:49.638Z,22.90
2018-05-08T10:00:17.905Z,23.00
2018-05-08T10:02:46.195Z,23.00
2018-05-08T10:05:14.473Z,23.10
2018-05-08T10:07:42.750Z,23.30
2018-05-08T10:10:11.034Z,23.60
2018-05-08T10:12:38.546Z,23.60
2018-05-08T10:15:06.062Z,23.70
2018-05-08T10:17:33.578Z,23.70
2018-05-08T10:20:01.102Z,23.60
2018-05-08T10:22:28.615Z,23.60
2018-05-08T10:24:56.899Z,23.80
2018-05-08T10:27:25.177Z,23.90
2018-05-08T10:29:53.470Z,24.20
2018-05-08T10:32:20.982Z,24.10
2018-05-08T10:34:48.511Z,24.40
2018-05-08T10:37:16.013Z,24.70
2018-05-08T10:39:44.293Z,24.80
2018-05-08T10:42:13.529Z,24.70
2018-05-08T10:44:41.193Z,24.70
2018-05-08T10:47:08.810Z,24.40
2018-05-08T10:49:37.087Z,24.20
2018-05-08T10:52:05.365Z,24.10
2018-05-08T10:54:33.646Z,24.10
2018-05-08T10:57:01.928Z,24.10
2018-05-08T10:59:30.206Z,24.10
2018-05-08T11:01:58.486Z,24.50
2018-05-08T11:04:26.765Z,24.90
2018-05-08T11:06:54.281Z,24.80
2018-05-08T11:09:21.798Z,25.20
2018-05-08T11:11:49.310Z,25.40
2018-05-08T11:14:16.830Z,25.30
2018-05-08T11:16:44.349Z,25.30
2018-05-08T11:19:12.622Z,25.20
2018-05-08T11:21:40.903Z,25.20
2018-05-08T11:24:09.181Z,25.30
2018-05-08T11:26:37.502Z,25.50
2018-05-08T11:29:04.992Z,25.40
2018-05-08T11:31:32.514Z,25.50
2018-05-08T11:34:00.034Z,25.30
2018-05-08T11:36:28.317Z,25.10
2018-05-08T11:38:55.854Z,25.10
2018-05-08T11:41:24.133Z,25.00
2018-05-08T11:43:52.402Z,25.00
2018-05-08T11:46:19.914Z,24.90
2018-05-08T11:48:47.418Z,25.00
2018-05-08T11:51:14.930Z,25.10
2018-05-08T11:53:42.438Z,25.30
2018-05-08T11:56:09.962Z,25.30
2018-05-08T11:58:37.473Z,25.40
2018-05-08T12:01:05.773Z,25.80
2018-05-08T12:03:33.282Z,25.80
2018-05-08T12:06:00.829Z,26.00
2018-05-08T12:08:29.109Z,26.20
2018-05-08T12:10:56.625Z,26.20
2018-05-08T12:13:24.146Z,26.20
2018-05-08T12:15:52.434Z,26.40
2018-05-08T12:18:20.713Z,26.50
2018-05-08T12:20:48.985Z,26.70
2018-05-08T12:23:17.265Z,26.90
2018-05-08T12:25:45.539Z,27.00
2018-05-08T12:28:13.822Z,27.10
2018-05-08T12:30:42.124Z,27.10
2018-05-08T12:33:09.631Z,27.10
2018-05-08T12:35:37.136Z,27.20
2018-05-08T12:38:04.654Z,27.30
2018-05-08T12:40:32.260Z,27.50
2018-05-08T12:42:59.773Z,27.60
2018-05-08T12:45:28.074Z,27.70
2018-05-08T12:47:55.582Z,27.70
2018-05-08T12:50:23.180Z,27.70
2018-05-08T12:52:50.614Z,27.90
2018-05-08T12:55:18.126Z,28.00
2018-05-08T12:57:45.645Z,28.20
2018-05-08T13:00:13.922Z,28.70
2018-05-08T13:02:42.197Z,28.80
2018-05-08T13:05:10.477Z,28.90
2018-05-08T13:07:38.762Z,29.00
2018-05-08T13:10:07.040Z,29.10
2018-05-08T13:12:35.322Z,29.20
2018-05-08T13:15:03.594Z,29.20
2018-05-08T13:17:31.877Z,29.30
2018-05-08T13:19:59.386Z,29.30
2018-05-08T13:22:26.894Z,29.50
2018-05-08T13:24:54.414Z,29.80
2018-05-08T13:27:23.426Z,29.90
2018-05-08T13:29:51.709Z,30.10
2018-05-08T13:32:19.989Z,30.20
2018-05-08T13:34:48.270Z,30.20
2018-05-08T13:37:16.557Z,30.10
2018-05-08T13:39:44.070Z,30.10
2018-05-08T13:42:11.574Z,30.00
2018-05-08T13:44:39.086Z,29.90
2018-05-08T13:47:06.606Z,30.00
2018-05-08T13:49:34.123Z,30.10
2018-05-08T13:52:01.648Z,30.00
2018-05-08T13:54:29.165Z,29.60
2018-05-08T13:56:56.691Z,29.40
2018-05-08T13:59:24.207Z,29.20
2018-05-08T14:01:51.734Z,29.20
2018-05-08T14:04:20.014Z,28.80
2018-05-08T14:06:48.385Z,28.50
2018-05-08T14:09:15.821Z,28.50
2018-05-08T14:11:44.189Z,28.20
2018-05-08T14:14:11.774Z,28.10
2018-05-08T14:16:40.046Z,27.90
2018-05-08T14:19:08.363Z,27.70
2018-05-08T14:21:36.611Z,27.30
2018-05-08T14:24:04.898Z,26.90
2018-05-08T14:26:32.418Z,26.90
2018-05-08T14:28:59.946Z,26.60
2018-05-08T14:31:27.535Z,26.20
2018-05-08T14:33:55.064Z,25.90
2018-05-08T14:36:22.593Z,25.60
2018-05-08T14:38:50.101Z,25.30
2018-05-08T14:41:17.651Z,24.90
2018-05-08T14:43:45.246Z,24.40
2018-05-08T14:46:12.681Z,23.90
2018-05-08T14:48:40.199Z,23.60
2018-05-08T14:51:07.735Z,23.40
2018-05-08T14:53:36.026Z,23.00
2018-05-08T14:56:03.543Z,23.00
2018-05-08T14:58:31.066Z,22.80
2018-05-08T15:00:59.338Z,22.80
2018-05-08T15:03:26.853Z,22.70
2018-05-08T15:05:55.129Z,22.80
2018-05-08T15:08:22.645Z,22.70
2018-05-08T15:10:50.153Z,22.80
2018-05-08T15:13:18.426Z,22.80
2018-05-08T15:15:46.705Z,22.70
2018-05-08T15:18:14.974Z,22.60
2018-05-08T15:20:43.267Z,22.50
2018-05-08T15:23:11.539Z,22.60
2018-05-08T15:25:39.849Z,22.60
2018-05-08T15:28:07.354Z,22.60
2018-05-08T15:30:34.862Z,22.90
2018-05-08T15:33:02.366Z,23.30
2018-05-08T15:35:30.638Z,23.80
2018-05-08T15:37:58.914Z,24.10
2018-05-08T15:40:26.418Z,24.10
2018-05-08T15:42:53.943Z,24.30
2018-05-08T15:45:21.449Z,24.20
2018-05-08T15:47:48.971Z,24.30
2018-05-08T15:50:17.241Z,23.80
2018-05-08T15:52:45.531Z,23.60
2018-05-08T15:55:13.881Z,23.50
2018-05-08T15:57:41.362Z,23.50
2018-05-08T16:00:09.645Z,23.10
2018-05-08T16:02:37.925Z,23.00
2018-05-08T16:05:06.210Z,22.90
2018-05-08T16:07:33.736Z,22.90
2018-05-08T16:10:01.249Z,22.80
2018-05-08T16:12:28.762Z,23.00
2018-05-08T16:14:57.056Z,23.80
2018-05-08T16:17:25.327Z,24.10
2018-05-08T16:19:53.610Z,24.20
2018-05-08T16:22:21.886Z,24.20
2018-05-08T16:24:50.154Z,24.10
2018-05-08T16:27:18.450Z,23.90
2018-05-08T16:29:45.964Z,23.90
2018-05-08T16:32:13.476Z,23.70
2018-05-08T16:34:40.997Z,23.50
2018-05-08T16:37:09.294Z,23.10
2018-05-08T16:39:37.574Z,22.90
2018-05-08T16:42:05.091Z,22.90
2018-05-08T16:44:34.101Z,22.70
2018-05-08T16:47:02.390Z,22.60
2018-05-08T16:49:30.663Z,22.50
2018-05-08T16:51:58.941Z,22.30
2018-05-08T16:54:27.225Z,22.20
2018-05-08T16:56:55.505Z,22.00
2018-05-08T16:59:23.777Z,21.70
2018-05-08T17:01:52.059Z,21.50
2018-05-08T17:04:20.343Z,21.40
2018-05-08T17:06:47.851Z,21.40
2018-05-08T17:09:15.372Z,21.30
2018-05-08T17:11:42.882Z,21.30
2018-05-08T17:14:10.394Z,21.10
2018-05-08T17:16:37.898Z,21.10
2018-05-08T17:19:05.468Z,21.00
2018-05-08T17:21:32.942Z,20.90
2018-05-08T17:24:01.431Z,20.80
2018-05-08T17:26:28.961Z,20.70
2018-05-08T17:28:56.469Z,20.70
2018-05-08T17:31:24.001Z,20.60
2018-05-08T17:33:52.277Z,20.70
2018-05-08T17:36:20.562Z,20.60
2018-05-08T17:38:48.069Z,20.60
2018-05-08T17:41:15.587Z,20.60
2018-05-08T17:43:43.089Z,20.50
2018-05-08T17:46:10.597Z,20.40
2018-05-08T17:48:38.107Z,20.30
2018-05-08T17:51:05.625Z,20.20
2018-05-08T17:53:33.150Z,20.10
2018-05-08T17:56:01.421Z,19.90
2018-05-08T17:58:29.702Z,19.70
2018-05-08T18:00:57.969Z,19.50
2018-05-08T18:03:25.471Z,19.50
2018-05-08T18:05:52.986Z,19.40
2018-05-08T18:08:21.270Z,19.10
2018-05-08T18:10:49.566Z,18.70
2018-05-08T18:13:17.082Z,18.70
2018-05-08T18:15:44.595Z,18.40
2018-05-08T18:18:12.117Z,18.10
2018-05-08T18:20:40.408Z,17.50
2018-05-08T18:23:08.694Z,17.40
2018-05-08T18:25:36.605Z,17.20
2018-05-08T18:28:04.394Z,17.10
2018-05-08T18:30:31.461Z,17.10
2018-05-08T18:32:59.286Z,17.20
2018-05-08T18:35:26.354Z,17.20
2018-05-08T18:37:53.874Z,17.20
2018-05-08T18:40:21.399Z,17.30
2018-05-08T18:42:49.677Z,17.40
2018-05-08T18:45:17.970Z,17.40
2018-05-08T18:47:45.491Z,17.40
2018-05-08T18:50:13.790Z,17.40
2018-05-08T18:52:41.349Z,17.30
2018-05-08T18:55:08.870Z,17.20
2018-05-08T18:57:36.409Z,17.10
2018-05-08T19:00:09.519Z,17.10
2018-05-08T19:02:37.047Z,17.00
2018-05-08T19:05:04.578Z,16.90
2018-05-08T19:07:32.097Z,17.00
2018-05-08T19:09:59.633Z,17.00
2018-05-08T19:12:27.168Z,17.00
2018-05-08T19:15:00.323Z,17.10
2018-05-08T19:17:28.612Z,17.10
2018-05-08T19:20:08.234Z,17.20
2018-05-08T19:22:35.840Z,17.10
2018-05-08T19:25:03.550Z,17.20
2018-05-08T19:27:31.249Z,17.20
2018-05-08T19:30:04.322Z,17.10
2018-05-08T19:32:32.605Z,17.10
2018-05-08T19:35:06.710Z,17.00
2018-05-08T19:37:40.735Z,17.00
2018-05-08T19:40:09.017Z,17.00
2018-05-08T19:42:37.293Z,17.00
2018-05-08T19:45:04.831Z,16.90
2018-05-08T19:47:32.342Z,16.90
2018-05-08T19:49:59.892Z,16.90
2018-05-08T19:52:27.464Z,16.90
2018-05-08T19:54:55.709Z,16.80
2018-05-08T19:57:23.225Z,16.70
2018-05-08T19:59:50.746Z,16.80
2018-05-08T20:02:18.262Z,16.70
2018-05-08T20:04:45.774Z,16.60
2018-05-08T20:07:13.285Z,16.50
2018-05-08T20:09:41.577Z,16.10
2018-05-08T20:12:09.852Z,16.10
2018-05-08T20:14:38.129Z,16.00
2018-05-08T20:17:06.406Z,15.80
2018-05-08T20:19:33.930Z,15.80
2018-05-08T20:22:01.443Z,15.70
2018-05-08T20:24:28.962Z,15.60
2018-05-08T20:26:57.251Z,15.50
2018-05-08T20:29:25.526Z,15.40
2018-05-08T20:31:53.802Z,15.50
2018-05-08T20:34:22.074Z,15.50
2018-05-08T20:36:50.362Z,15.60
2018-05-08T20:39:18.634Z,15.70
2018-05-08T20:41:46.925Z,15.70
2018-05-08T20:44:14.441Z,15.70
2018-05-08T20:46:41.952Z,15.80
2018-05-08T20:49:09.518Z,15.80
2018-05-08T20:51:37.770Z,15.90
2018-05-08T20:54:05.282Z,15.80
2018-05-08T20:56:32.818Z,15.70
2018-05-08T20:59:00.346Z,15.50
2018-05-08T21:01:27.862Z,15.20
2018-05-08T21:03:55.385Z,15.20
2018-05-08T21:06:22.894Z,15.10
2018-05-08T21:08:50.425Z,15.00
2018-05-08T21:11:17.934Z,14.90
2018-05-08T21:13:46.210Z,14.90
2018-05-08T21:16:14.499Z,15.00
2018-05-08T21:18:42.014Z,14.90
2018-05-08T21:21:09.536Z,15.00
2018-05-08T21:23:37.046Z,15.10
2018-05-08T21:26:05.337Z,15.20
2018-05-08T21:28:39.306Z,15.10
2018-05-08T21:31:12.505Z,15.10
2018-05-08T21:33:40.022Z,15.10
2018-05-08T21:36:07.541Z,15.20
2018-05-08T21:38:35.061Z,15.30
2018-05-08T21:41:02.570Z,15.30
2018-05-08T21:43:30.849Z,15.40
2018-05-08T21:45:59.147Z,15.40
2018-05-08T21:48:26.702Z,15.40
2018-05-08T21:50:54.186Z,15.40
2018-05-08T21:53:21.706Z,15.40
2018-05-08T21:55:49.981Z,15.40
2018-05-08T21:58:18.272Z,15.40
2018-05-08T22:00:45.789Z,15.40
2018-05-08T22:03:13.300Z,15.40
2018-05-08T22:05:40.819Z,15.40
2018-05-08T22:08:09.094Z,15.40
2018-05-08T22:10:36.616Z,15.40
2018-05-08T22:13:04.125Z,15.40
2018-05-08T22:15:32.405Z,15.30
2018-05-08T22:18:00.681Z,15.30
2018-05-08T22:20:28.970Z,15.30
2018-05-08T22:22:56.477Z,15.30
2018-05-08T22:25:24.001Z,15.30
2018-05-08T22:27:51.522Z,15.20
2018-05-08T22:30:19.798Z,15.30
2018-05-08T22:32:48.078Z,15.20
2018-05-08T22:35:16.358Z,15.20
2018-05-08T22:37:44.634Z,15.20
2018-05-08T22:40:12.910Z,15.20
2018-05-08T22:42:41.194Z,15.10
2018-05-08T22:45:09.479Z,15.10
2018-05-08T22:47:36.982Z,15.10
2018-05-08T22:50:04.504Z,15.10
2018-05-08T22:52:32.034Z,15.10
2018-05-08T22:55:00.318Z,15.10
2018-05-08T22:57:28.602Z,15.00
2018-05-08T22:59:57.023Z,15.00
2018-05-08T23:02:24.534Z,15.00
2018-05-08T23:04:52.817Z,14.90
2018-05-08T23:07:21.101Z,14.90
2018-05-08T23:09:48.644Z,14.90
2018-05-08T23:12:16.147Z,14.90
2018-05-08T23:14:43.661Z,14.90
2018-05-08T23:17:11.937Z,14.80
2018-05-08T23:19:40.225Z,14.80
2018-05-08T23:22:07.739Z,14.80
2018-05-08T23:24:35.251Z,14.80
2018-05-08T23:27:02.757Z,14.80
2018-05-08T23:29:30.282Z,14.80
2018-05-08T23:31:57.841Z,14.70
2018-05-08T23:34:25.383Z,14.70
2018-05-08T23:36:52.889Z,14.70
2018-05-08T23:39:20.637Z,14.60
2018-05-08T23:41:48.155Z,14.70
2018-05-08T23:44:15.670Z,14.60
2018-05-08T23:46:43.192Z,14.60
2018-05-08T23:49:10.701Z,14.60
2018-05-08T23:51:38.218Z,14.60
2018-05-08T23:54:05.729Z,14.50
2018-05-08T23:56:34.006Z,14.50
2018-05-08T23:59:01.526Z,14.50
